createdAt,value
2019-04-25T00:01:54.298Z,7.40
2019-04-25T00:04:21.969Z,7.30
2019-04-25T00:06:49.537Z,7.40
2019-04-25T00:09:17.976Z,7.50
2019-04-25T00:11:47.791Z,7.40
2019-04-25T00:14:13.350Z,7.40
2019-04-25T00:16:41.370Z,7.50
2019-04-25T00:19:11.687Z,7.60
2019-04-25T00:24:37.729Z,7.40
2019-04-25T00:27:05.291Z,7.50
2019-04-25T00:29:32.847Z,7.50
2019-04-25T00:32:01.692Z,7.50
2019-04-25T00:34:29.532Z,7.40
2019-04-25T00:36:57.086Z,7.40
2019-04-25T00:39:24.659Z,7.30
2019-04-25T00:41:52.231Z,7.30
2019-04-25T00:44:19.779Z,7.30
2019-04-25T00:46:49.035Z,7.20
2019-04-25T00:49:16.855Z,7.20
2019-04-25T00:51:46.340Z,7.10
2019-04-25T00:54:13.902Z,7.10
2019-04-25T00:56:43.287Z,7.10
2019-04-25T00:59:09.066Z,7.20
2019-04-25T01:01:41.378Z,7.10
2019-04-25T01:04:07.904Z,7.10
2019-04-25T01:06:35.469Z,7.20
2019-04-25T01:09:03.019Z,7.20
2019-04-25T01:11:31.399Z,7.20
2019-04-25T01:13:58.168Z,7.30
2019-04-25T01:16:25.718Z,7.30
2019-04-25T01:18:54.563Z,7.30
2019-04-25T01:21:20.959Z,7.20
2019-04-25T01:23:49.350Z,7.10
2019-04-25T01:26:16.127Z,7.10
2019-04-25T01:28:46.185Z,7.00
2019-04-25T01:31:13.769Z,7.00
2019-04-25T01:33:40.802Z,7.00
2019-04-25T01:39:08.981Z,7.00
2019-04-25T01:41:44.166Z,6.90
2019-04-25T01:44:21.595Z,6.90
2019-04-25T01:46:49.803Z,7.00
2019-04-25T01:49:18.687Z,7.00
2019-04-25T01:51:46.247Z,6.90
2019-04-25T01:54:14.150Z,6.90
2019-04-25T01:56:41.398Z,7.00
2019-04-25T01:59:08.951Z,7.10
2019-04-25T02:01:37.428Z,7.20
2019-04-25T02:04:04.984Z,7.10
2019-04-25T02:06:33.479Z,6.90
2019-04-25T02:09:00.229Z,6.90
2019-04-25T02:11:31.423Z,6.70
2019-04-25T02:13:59.939Z,6.70
2019-04-25T02:16:27.492Z,6.70
2019-04-25T02:18:56.157Z,6.60
2019-04-25T02:21:23.666Z,6.70
2019-04-25T02:23:51.751Z,6.90
2019-04-25T02:26:18.822Z,7.10
2019-04-25T02:28:46.367Z,7.10
2019-04-25T02:31:17.703Z,6.90
2019-04-25T02:33:44.092Z,6.80
2019-04-25T02:36:09.885Z,6.70
2019-04-25T02:38:37.445Z,6.70
2019-04-25T02:41:08.404Z,6.70
2019-04-25T02:43:35.095Z,6.70
2019-04-25T02:46:08.083Z,6.70
2019-04-25T02:48:40.654Z,6.70
2019-04-25T02:51:08.211Z,6.70
2019-04-25T02:53:37.289Z,6.60
2019-04-25T02:56:12.391Z,6.60
2019-04-25T02:58:34.107Z,6.70
2019-04-25T03:01:07.996Z,6.70
2019-04-25T03:03:29.029Z,6.60
2019-04-25T03:05:57.448Z,6.60
2019-04-25T03:08:24.436Z,6.50
2019-04-25T03:10:54.124Z,6.50
2019-04-25T03:13:20.307Z,6.50
2019-04-25T03:15:47.861Z,6.60
2019-04-25T03:18:16.344Z,6.70
2019-04-25T03:20:48.310Z,6.70
2019-04-25T03:23:18.651Z,6.80
2019-04-25T03:25:46.207Z,6.80
2019-04-25T03:28:15.526Z,6.70
2019-04-25T03:30:41.372Z,6.70
2019-04-25T03:33:13.509Z,6.80
2019-04-25T03:35:36.531Z,6.80
2019-04-25T03:38:05.147Z,6.70
2019-04-25T03:40:31.686Z,6.60
2019-04-25T03:43:01.309Z,6.60
2019-04-25T03:45:28.743Z,6.70
2019-04-25T03:47:57.076Z,6.80
2019-04-25T03:50:24.747Z,6.80
2019-04-25T03:52:53.931Z,6.90
2019-04-25T03:55:20.682Z,6.90
2019-04-25T03:57:48.236Z,6.80
2019-04-25T04:00:15.787Z,6.80
2019-04-25T04:02:44.266Z,6.80
2019-04-25T04:05:11.480Z,6.60
2019-04-25T04:07:40.487Z,6.50
2019-04-25T04:10:08.058Z,6.50
2019-04-25T04:12:35.704Z,6.60
2019-04-25T04:15:04.721Z,6.50
2019-04-25T04:17:34.746Z,6.50
2019-04-25T04:23:14.075Z,6.60
2019-04-25T04:25:40.856Z,6.60
2019-04-25T04:28:08.406Z,6.40
2019-04-25T04:30:35.972Z,6.30
2019-04-25T04:33:03.683Z,6.30
2019-04-25T04:35:31.140Z,6.30
2019-04-25T04:37:58.691Z,6.40
2019-04-25T04:40:26.243Z,6.40
2019-04-25T04:42:53.801Z,6.40
2019-04-25T04:45:21.350Z,6.40
2019-04-25T04:47:49.668Z,6.40
2019-04-25T04:50:17.231Z,6.40
2019-04-25T04:52:44.784Z,6.40
2019-04-25T04:55:14.825Z,6.40
2019-04-25T04:57:39.937Z,6.40
2019-04-25T05:00:07.500Z,6.40
2019-04-25T05:02:39.980Z,6.50
2019-04-25T05:05:27.104Z,6.60
2019-04-25T05:07:55.423Z,6.50
2019-04-25T05:10:23.646Z,6.50
2019-04-25T05:12:50.576Z,6.70
2019-04-25T05:15:19.112Z,6.80
2019-04-25T05:17:45.735Z,6.90
2019-04-25T05:20:15.124Z,6.90
2019-04-25T05:22:40.887Z,7.00
2019-04-25T05:25:08.438Z,7.10
2019-04-25T05:27:50.692Z,7.20
2019-04-25T05:30:07.155Z,7.20
2019-04-25T05:32:34.759Z,7.20
2019-04-25T05:35:03.425Z,7.50
2019-04-25T05:37:30.849Z,7.70
2019-04-25T05:40:00.319Z,7.80
2019-04-25T05:42:27.871Z,8.00
2019-04-25T05:44:56.314Z,8.10
2019-04-25T05:47:26.047Z,8.30
2019-04-25T05:49:54.040Z,8.40
2019-04-25T05:52:19.990Z,8.60
2019-04-25T05:54:49.479Z,8.60
2019-04-25T05:57:17.035Z,8.70
2019-04-25T05:59:44.583Z,8.90
2019-04-25T06:02:13.874Z,9.00
2019-04-25T06:04:39.726Z,9.10
2019-04-25T06:07:07.287Z,9.30
2019-04-25T06:12:34.434Z,9.50
2019-04-25T06:15:02.991Z,9.70
2019-04-25T06:17:41.419Z,9.80
2019-04-25T06:20:09.766Z,9.90
2019-04-25T06:22:43.983Z,10.10
2019-04-25T06:25:13.727Z,10.30
2019-04-25T06:27:39.195Z,10.30
2019-04-25T06:30:06.754Z,10.40
2019-04-25T06:32:35.548Z,10.60
2019-04-25T06:35:04.182Z,11.00
2019-04-25T06:37:33.612Z,11.00
2019-04-25T06:39:59.595Z,11.00
2019-04-25T06:42:27.168Z,11.30
2019-04-25T06:44:55.660Z,11.10
2019-04-25T06:47:34.144Z,10.90
2019-04-25T06:50:01.649Z,10.80
2019-04-25T06:52:31.186Z,11.00
2019-04-25T06:54:58.748Z,11.30
2019-04-25T06:57:29.045Z,11.40
2019-04-25T06:59:56.759Z,11.70
2019-04-25T07:02:25.380Z,12.00
2019-04-25T07:04:51.915Z,12.20
2019-04-25T07:07:19.482Z,12.20
2019-04-25T07:09:47.063Z,12.10
2019-04-25T07:12:14.640Z,12.30
2019-04-25T07:14:43.864Z,12.50
2019-04-25T07:17:09.803Z,12.50
2019-04-25T07:19:37.360Z,12.60
2019-04-25T07:22:04.923Z,12.60
2019-04-25T07:24:33.943Z,12.90
2019-04-25T07:27:05.756Z,13.20
2019-04-25T07:32:30.787Z,12.80
2019-04-25T07:34:55.955Z,12.60
2019-04-25T07:37:24.247Z,12.50
2019-04-25T07:39:51.126Z,12.90
2019-04-25T07:42:18.706Z,12.90
2019-04-25T07:44:52.650Z,13.10
2019-04-25T07:47:15.915Z,13.40
2019-04-25T07:49:43.391Z,13.30
2019-04-25T07:52:11.585Z,13.20
2019-04-25T07:54:38.991Z,13.60
2019-04-25T07:57:06.565Z,13.60
2019-04-25T07:59:35.365Z,13.80
2019-04-25T08:02:03.290Z,13.80
2019-04-25T08:04:29.329Z,13.90
2019-04-25T08:06:56.893Z,13.90
2019-04-25T08:09:25.395Z,14.10
2019-04-25T08:11:54.898Z,14.40
2019-04-25T08:14:22.208Z,14.30
2019-04-25T08:16:50.578Z,14.40
2019-04-25T08:19:24.942Z,14.50
2019-04-25T08:21:53.694Z,14.50
2019-04-25T08:24:20.124Z,14.50
2019-04-25T08:26:47.683Z,14.60
2019-04-25T08:29:15.239Z,14.50
2019-04-25T08:31:43.915Z,14.30
2019-04-25T08:34:14.321Z,14.50
2019-04-25T08:36:40.054Z,14.60
2019-04-25T08:39:07.531Z,14.70
2019-04-25T08:41:36.076Z,14.70
2019-04-25T08:44:04.084Z,14.70
2019-04-25T08:46:31.064Z,14.70
2019-04-25T08:49:02.312Z,14.90
2019-04-25T08:51:29.047Z,15.30
2019-04-25T08:53:56.609Z,15.90
2019-04-25T08:56:25.919Z,16.60
2019-04-25T08:59:03.918Z,16.60
2019-04-25T09:01:29.236Z,16.80
2019-04-25T09:03:57.727Z,17.20
2019-04-25T09:06:25.287Z,17.00
2019-04-25T09:08:53.999Z,16.80
2019-04-25T09:11:20.454Z,16.60
2019-04-25T09:13:48.932Z,16.80
2019-04-25T09:16:17.268Z,16.60
2019-04-25T09:18:45.373Z,16.70
2019-04-25T09:21:13.757Z,16.30
2019-04-25T09:23:40.023Z,16.30
2019-04-25T09:26:07.587Z,16.40
2019-04-25T09:28:37.950Z,16.60
2019-04-25T09:31:03.950Z,17.10
2019-04-25T09:33:31.899Z,16.90
2019-04-25T09:35:59.455Z,16.90
2019-04-25T09:38:28.041Z,17.10
2019-04-25T09:40:57.556Z,17.00
2019-04-25T09:43:25.106Z,17.10
2019-04-25T09:45:53.265Z,17.00
2019-04-25T09:48:24.907Z,17.50
2019-04-25T09:50:56.924Z,17.10
2019-04-25T09:53:25.982Z,17.30
2019-04-25T09:55:54.147Z,17.20
2019-04-25T09:58:30.683Z,17.30
2019-04-25T10:01:05.763Z,17.90
2019-04-25T10:03:33.264Z,18.10
2019-04-25T10:05:59.418Z,17.90
2019-04-25T10:08:27.088Z,18.20
2019-04-25T10:10:55.653Z,17.70
2019-04-25T10:13:23.511Z,18.10
2019-04-25T10:16:06.580Z,18.90
2019-04-25T10:18:34.152Z,19.20
2019-04-25T10:21:04.177Z,19.10
2019-04-25T10:23:30.238Z,18.80
2019-04-25T10:25:57.791Z,18.70
2019-04-25T10:28:26.294Z,19.20
2019-04-25T10:30:55.557Z,19.40
2019-04-25T10:33:21.460Z,19.60
2019-04-25T10:35:53.092Z,19.40
2019-04-25T10:38:16.614Z,19.50
2019-04-25T10:40:45.154Z,20.10
2019-04-25T10:43:14.181Z,20.30
2019-04-25T10:45:42.379Z,20.10
2019-04-25T10:48:08.902Z,20.50
2019-04-25T10:50:36.460Z,20.60
2019-04-25T10:53:05.942Z,20.90
2019-04-25T10:55:33.510Z,20.70
2019-04-25T10:58:01.067Z,20.90
2019-04-25T11:00:29.411Z,20.40
2019-04-25T11:02:57.751Z,20.80
2019-04-25T11:05:25.307Z,20.80
2019-04-25T11:07:55.768Z,21.10
2019-04-25T11:10:20.470Z,20.60
2019-04-25T11:12:48.031Z,20.40
2019-04-25T11:15:15.591Z,20.50
2019-04-25T11:17:45.839Z,20.40
2019-04-25T11:20:10.756Z,20.40
2019-04-25T11:22:38.327Z,20.60
2019-04-25T11:25:05.891Z,20.40
2019-04-25T11:27:34.027Z,20.50
2019-04-25T11:30:09.309Z,20.30
2019-04-25T11:32:28.667Z,20.40
2019-04-25T11:34:57.267Z,20.60
2019-04-25T11:37:23.974Z,20.50
2019-04-25T11:39:51.456Z,20.50
2019-04-25T11:42:19.778Z,21.10
2019-04-25T11:44:47.337Z,21.10
2019-04-25T11:47:15.824Z,21.00
2019-04-25T11:49:45.389Z,21.00
2019-04-25T11:52:10.995Z,20.80
2019-04-25T11:54:38.552Z,20.90
2019-04-25T11:57:06.120Z,21.30
2019-04-25T11:59:34.168Z,21.40
2019-04-25T12:02:01.392Z,21.50
2019-04-25T12:04:28.942Z,21.40
2019-04-25T12:06:56.498Z,21.30
2019-04-25T12:09:24.197Z,21.90
2019-04-25T12:11:52.806Z,22.00
2019-04-25T12:14:19.258Z,21.70
2019-04-25T12:16:49.116Z,21.70
2019-04-25T12:19:14.419Z,21.20
2019-04-25T12:21:44.486Z,21.30
2019-04-25T12:24:10.350Z,21.30
2019-04-25T12:26:37.915Z,21.20
2019-04-25T12:29:07.398Z,21.70
2019-04-25T12:31:34.967Z,21.60
2019-04-25T12:34:03.481Z,22.30
2019-04-25T12:36:30.127Z,22.90
2019-04-25T12:38:57.691Z,22.60
2019-04-25T12:41:25.256Z,22.60
2019-04-25T12:43:54.353Z,22.20
2019-04-25T12:46:20.889Z,22.50
2019-04-25T12:48:49.483Z,22.60
2019-04-25T12:51:16.038Z,22.20
2019-04-25T12:53:43.880Z,22.40
2019-04-25T12:56:11.206Z,22.90
2019-04-25T12:58:40.677Z,23.40
2019-04-25T13:01:08.243Z,23.10
2019-04-25T13:03:35.799Z,22.60
2019-04-25T13:06:03.364Z,22.50
2019-04-25T13:08:30.922Z,22.60
2019-04-25T13:11:07.815Z,23.30
2019-04-25T13:13:26.111Z,23.50
2019-04-25T13:15:53.679Z,23.50
2019-04-25T13:18:21.240Z,23.80
2019-04-25T13:20:48.799Z,22.80
2019-04-25T13:23:16.355Z,22.50
2019-04-25T13:25:44.245Z,22.80
2019-04-25T13:28:14.556Z,23.30
2019-04-25T13:31:01.361Z,23.60
2019-04-25T13:33:23.578Z,23.70
2019-04-25T13:35:54.330Z,24.00
2019-04-25T13:38:21.159Z,24.40
2019-04-25T13:40:48.727Z,24.00
2019-04-25T13:43:16.284Z,23.60
2019-04-25T13:45:43.929Z,23.80
2019-04-25T13:48:13.406Z,24.10
2019-04-25T13:50:40.966Z,24.20
2019-04-25T13:53:08.523Z,24.30
2019-04-25T13:55:37.985Z,25.60
2019-04-25T13:58:05.555Z,26.30
2019-04-25T14:00:34.790Z,26.50
2019-04-25T14:03:00.711Z,26.70
2019-04-25T14:05:28.328Z,25.70
2019-04-25T14:07:55.880Z,25.20
2019-04-25T14:10:25.046Z,25.20
2019-04-25T14:12:51.047Z,25.80
2019-04-25T14:15:18.615Z,26.10
2019-04-25T14:20:41.103Z,25.40
2019-04-25T14:23:08.668Z,25.40
2019-04-25T14:25:36.229Z,24.20
2019-04-25T14:28:05.319Z,24.00
2019-04-25T14:30:34.221Z,23.00
2019-04-25T14:32:59.934Z,22.10
2019-04-25T14:35:29.045Z,21.70
2019-04-25T14:37:57.568Z,21.50
2019-04-25T14:40:25.819Z,21.50
2019-04-25T14:42:53.557Z,21.50
2019-04-25T14:45:21.569Z,21.70
2019-04-25T14:47:50.695Z,21.90
2019-04-25T14:50:18.271Z,21.50
2019-04-25T14:52:46.604Z,21.40
2019-04-25T14:55:17.646Z,21.40
2019-04-25T14:57:45.212Z,21.10
2019-04-25T15:00:23.986Z,21.10
2019-04-25T15:02:51.042Z,21.30
2019-04-25T15:05:18.603Z,21.20
2019-04-25T15:07:46.163Z,21.30
2019-04-25T15:10:13.722Z,21.80
2019-04-25T15:12:41.298Z,21.80
2019-04-25T15:15:08.859Z,21.40
2019-04-25T15:17:45.788Z,21.50
2019-04-25T15:20:04.971Z,21.30
2019-04-25T15:22:32.636Z,21.70
2019-04-25T15:25:00.145Z,21.30
2019-04-25T15:27:27.740Z,21.80
2019-04-25T15:29:55.303Z,21.70
2019-04-25T15:32:22.869Z,21.50
2019-04-25T15:34:52.043Z,21.20
2019-04-25T15:40:21.735Z,21.40
2019-04-25T15:42:50.980Z,23.20
2019-04-25T15:45:24.111Z,23.20
2019-04-25T15:47:51.663Z,25.80
2019-04-25T15:50:19.226Z,25.80
2019-04-25T15:52:47.567Z,22.80
2019-04-25T15:55:15.144Z,22.80
2019-04-25T15:57:42.703Z,22.30
2019-04-25T16:00:11.010Z,22.00
2019-04-25T16:02:39.016Z,22.60
2019-04-25T16:05:06.331Z,23.50
2019-04-25T16:07:35.831Z,23.40
2019-04-25T16:10:03.405Z,24.70
2019-04-25T16:12:30.969Z,25.80
2019-04-25T16:14:58.522Z,26.40
2019-04-25T16:17:27.117Z,25.90
2019-04-25T16:19:55.587Z,24.40
2019-04-25T16:22:23.162Z,23.60
2019-04-25T16:24:50.719Z,22.10
2019-04-25T16:27:18.285Z,21.70
2019-04-25T16:29:46.768Z,21.20
2019-04-25T16:32:20.748Z,21.30
2019-04-25T16:34:42.875Z,21.00
2019-04-25T16:37:10.435Z,20.80
2019-04-25T16:39:37.987Z,20.70
2019-04-25T16:42:05.550Z,20.40
2019-04-25T16:44:33.991Z,20.40
2019-04-25T16:47:01.647Z,20.50
2019-04-25T16:49:29.929Z,20.60
2019-04-25T16:51:57.812Z,20.60
2019-04-25T16:54:25.395Z,20.60
2019-04-25T16:56:52.964Z,20.40
2019-04-25T16:59:20.531Z,20.20
2019-04-25T17:01:48.091Z,19.90
2019-04-25T17:04:15.642Z,19.90
2019-04-25T17:06:43.194Z,19.80
2019-04-25T17:09:10.759Z,19.70
2019-04-25T17:11:39.237Z,19.80
2019-04-25T17:17:02.643Z,19.40
2019-04-25T17:19:34.249Z,19.30
2019-04-25T17:22:01.223Z,19.30
2019-04-25T17:24:30.068Z,18.70
2019-04-25T17:26:57.162Z,18.70
2019-04-25T17:29:24.721Z,18.40
2019-04-25T17:31:53.043Z,18.30
2019-04-25T17:34:21.504Z,18.30
2019-04-25T17:36:49.075Z,18.20
2019-04-25T17:39:18.226Z,18.10
2019-04-25T17:41:46.645Z,17.80
2019-04-25T17:44:14.223Z,17.80
2019-04-25T17:46:41.908Z,17.90
2019-04-25T17:49:10.208Z,17.80
2019-04-25T17:51:39.334Z,17.80
2019-04-25T17:54:06.913Z,17.50
2019-04-25T17:56:34.523Z,17.50
2019-04-25T17:59:02.079Z,17.40
2019-04-25T18:01:29.638Z,17.40
2019-04-25T18:03:57.334Z,17.30
2019-04-25T18:06:25.831Z,16.90
2019-04-25T18:08:53.390Z,16.50
2019-04-25T18:11:20.948Z,16.20
2019-04-25T18:13:48.514Z,16.00
2019-04-25T18:16:16.596Z,15.80
2019-04-25T18:18:56.012Z,15.90
2019-04-25T18:21:24.343Z,15.60
2019-04-25T18:23:54.827Z,15.50
2019-04-25T18:26:26.898Z,15.50
2019-04-25T18:28:55.228Z,15.30
2019-04-25T18:31:23.719Z,15.30
2019-04-25T18:33:51.286Z,15.20
2019-04-25T18:36:24.522Z,15.10
2019-04-25T18:38:52.703Z,15.00
2019-04-25T18:41:30.187Z,14.80
2019-04-25T18:43:58.703Z,14.70
2019-04-25T18:46:26.791Z,14.70
2019-04-25T18:48:54.363Z,14.60
2019-04-25T18:51:21.931Z,14.40
2019-04-25T18:56:47.611Z,14.30
2019-04-25T18:59:35.823Z,14.20
2019-04-25T19:02:08.916Z,14.20
2019-04-25T19:04:51.357Z,14.20
2019-04-25T19:07:22.660Z,14.10
2019-04-25T19:09:47.108Z,14.00
2019-04-25T19:12:14.143Z,14.00
2019-04-25T19:14:41.704Z,13.90
2019-04-25T19:17:09.263Z,13.80
2019-04-25T19:19:36.815Z,13.70
2019-04-25T19:22:05.378Z,13.70
2019-04-25T19:24:32.935Z,13.60
2019-04-25T19:27:00.501Z,13.50
2019-04-25T19:29:28.092Z,13.40
2019-04-25T19:31:55.642Z,13.50
2019-04-25T19:34:24.143Z,13.30
2019-04-25T19:36:52.136Z,13.30
2019-04-25T19:39:19.730Z,13.30
2019-04-25T19:44:43.506Z,13.00
2019-04-25T19:47:11.068Z,13.00
2019-04-25T19:49:38.624Z,12.80
2019-04-25T19:52:06.179Z,12.90
2019-04-25T19:54:33.734Z,12.80
2019-04-25T19:57:01.290Z,12.70
2019-04-25T19:59:28.843Z,12.70
2019-04-25T20:01:56.401Z,12.60
2019-04-25T20:04:23.963Z,12.50
2019-04-25T20:06:52.452Z,12.50
2019-04-25T20:09:22.638Z,12.50
2019-04-25T20:11:50.215Z,12.50
2019-04-25T20:14:17.765Z,12.40
2019-04-25T20:16:46.074Z,12.30
2019-04-25T20:19:13.013Z,12.30
2019-04-25T20:21:40.595Z,12.40
2019-04-25T20:24:08.147Z,12.50
2019-04-25T20:26:36.475Z,12.40
2019-04-25T20:29:04.029Z,12.40
2019-04-25T20:31:31.592Z,12.20
2019-04-25T20:34:05.628Z,12.10
2019-04-25T20:36:26.764Z,12.10
2019-04-25T20:38:55.244Z,12.10
2019-04-25T20:41:21.931Z,12.00
2019-04-25T20:43:49.519Z,12.00
2019-04-25T20:46:18.987Z,12.10
2019-04-25T20:48:48.455Z,11.90
2019-04-25T20:51:16.965Z,12.00
2019-04-25T20:53:44.523Z,11.70
2019-04-25T20:56:12.090Z,11.60
2019-04-25T20:58:40.555Z,11.70
2019-04-25T21:01:08.119Z,11.70
2019-04-25T21:03:36.654Z,11.60
2019-04-25T21:06:05.142Z,11.50
2019-04-25T21:08:32.695Z,11.60
2019-04-25T21:11:00.255Z,11.50
2019-04-25T21:13:27.835Z,11.40
2019-04-25T21:15:56.222Z,11.50
2019-04-25T21:18:24.928Z,11.50
2019-04-25T21:20:53.428Z,11.40
2019-04-25T21:23:21.755Z,11.40
2019-04-25T21:25:51.437Z,11.50
2019-04-25T21:28:17.876Z,11.50
2019-04-25T21:30:45.459Z,11.50
2019-04-25T21:33:13.036Z,11.70
2019-04-25T21:35:40.656Z,11.60
2019-04-25T21:38:10.135Z,11.50
2019-04-25T21:43:32.352Z,11.40
2019-04-25T21:46:00.669Z,11.50
2019-04-25T21:48:27.555Z,11.50
2019-04-25T21:50:56.994Z,11.50
2019-04-25T21:53:24.684Z,11.60
2019-04-25T21:55:53.230Z,11.50
2019-04-25T21:58:19.903Z,11.40
2019-04-25T22:01:04.975Z,11.50
2019-04-25T22:03:32.547Z,11.60
2019-04-25T22:06:00.768Z,11.60
2019-04-25T22:08:28.703Z,11.70
2019-04-25T22:10:58.956Z,11.80
2019-04-25T22:13:25.788Z,11.90
2019-04-25T22:15:53.395Z,12.10
2019-04-25T22:18:21.012Z,11.80
2019-04-25T22:20:49.594Z,11.80
2019-04-25T22:23:17.194Z,11.60
2019-04-25T22:25:47.503Z,11.50
2019-04-25T22:28:17.033Z,11.50
2019-04-25T22:30:45.404Z,11.50
2019-04-25T22:33:18.699Z,11.50
2019-04-25T22:35:48.124Z,11.60
2019-04-25T22:38:15.727Z,11.50
2019-04-25T22:40:43.292Z,11.40
2019-04-25T22:43:10.907Z,11.50
2019-04-25T22:45:38.523Z,11.60
2019-04-25T22:48:06.687Z,11.70
2019-04-25T22:50:34.698Z,11.80
2019-04-25T22:53:02.366Z,11.70
2019-04-25T22:55:29.882Z,11.60
2019-04-25T22:57:59.351Z,11.70
2019-04-25T23:00:26.915Z,11.70
2019-04-25T23:02:54.523Z,11.50
2019-04-25T23:05:22.818Z,11.50
2019-04-25T23:07:50.392Z,11.50
2019-04-25T23:10:17.995Z,11.40
2019-04-25T23:12:47.483Z,11.50
2019-04-25T23:15:15.051Z,11.50
2019-04-25T23:17:42.615Z,11.30
2019-04-25T23:20:12.171Z,11.30
2019-04-25T23:22:39.738Z,11.40
2019-04-25T23:25:07.848Z,11.20
2019-04-25T23:27:36.855Z,11.30
2019-04-25T23:30:08.049Z,11.10
2019-04-25T23:32:34.967Z,11.10
2019-04-25T23:35:02.531Z,11.10
2019-04-25T23:37:30.136Z,11.10
2019-04-25T23:39:57.694Z,11.30
2019-04-25T23:42:25.255Z,11.30
2019-04-25T23:44:53.623Z,11.20
2019-04-25T23:47:21.195Z,11.20
2019-04-25T23:49:48.769Z,11.00
2019-04-25T23:52:17.203Z,10.90
2019-04-25T23:54:43.967Z,10.90
2019-04-25T23:57:13.453Z,10.80
2019-04-25T23:59:41.099Z,10.70
